sensor_id;sensor_type;location;lat;lon;timestamp;P1;durP1;ratioP1;P2;durP2;ratioP2
21665;SDS011;10994;45.486;9.190;2023-03-14T00:02:18;18.17;;;13.30;;
21665;SDS011;10994;45.486;9.190;2023-03-14T00:04:44;14.77;;;12.67;;
21665;SDS011;10994;45.486;9.190;2023-03-14T00:07:10;16.77;;;12.10;;
21665;SDS011;10994;45.486;9.190;2023-03-14T00:09:37;17.13;;;12.17;;
21665;SDS011;10994;45.486;9.190;2023-03-14T00:12:03;17.40;;;12.17;;
21665;SDS011;10994;45.486;9.190;2023-03-14T00:14:29;13.73;;;11.97;;
21665;SDS011;10994;45.486;9.190;2023-03-14T00:16:56;15.23;;;12.27;;
21665;SDS011;10994;45.486;9.190;2023-03-14T00:19:22;14.33;;;12.40;;
21665;SDS011;10994;45.486;9.190;2023-03-14T00:21:47;15.57;;;12.50;;
21665;SDS011;10994;45.486;9.190;2023-03-14T00:24:13;16.20;;;12.50;;
21665;SDS011;10994;45.486;9.190;2023-03-14T00:26:39;15.20;;;12.23;;
21665;SDS011;10994;45.486;9.190;2023-03-14T00:29:05;15.63;;;11.23;;
21665;SDS011;10994;45.486;9.190;2023-03-14T00:31:31;14.67;;;11.23;;
21665;SDS011;10994;45.486;9.190;2023-03-14T00:33:56;15.50;;;12.40;;
21665;SDS011;10994;45.486;9.190;2023-03-14T00:36:23;14.07;;;10.67;;
21665;SDS011;10994;45.486;9.190;2023-03-14T00:38:50;17.10;;;11.50;;
21665;SDS011;10994;45.486;9.190;2023-03-14T00:41:17;14.90;;;11.33;;
21665;SDS011;10994;45.486;9.190;2023-03-14T00:43:48;15.17;;;10.67;;
21665;SDS011;10994;45.486;9.190;2023-03-14T00:46:14;15.03;;;11.27;;
21665;SDS011;10994;45.486;9.190;2023-03-14T00:48:43;17.00;;;11.57;;
21665;SDS011;10994;45.486;9.190;2023-03-14T00:51:10;16.87;;;11.03;;
21665;SDS011;10994;45.486;9.190;2023-03-14T00:53:42;13.37;;;11.07;;
21665;SDS011;10994;45.486;9.190;2023-03-14T00:56:09;13.63;;;10.70;;
21665;SDS011;10994;45.486;9.190;2023-03-14T00:58:36;14.13;;;10.13;;
21665;SDS011;10994;45.486;9.190;2023-03-14T01:01:05;12.33;;;10.47;;
21665;SDS011;10994;45.486;9.190;2023-03-14T01:03:35;13.63;;;9.93;;
21665;SDS011;10994;45.486;9.190;2023-03-14T01:06:08;12.33;;;10.13;;
21665;SDS011;10994;45.486;9.190;2023-03-14T01:08:41;16.17;;;10.57;;
21665;SDS011;10994;45.486;9.190;2023-03-14T01:11:09;14.30;;;10.60;;
21665;SDS011;10994;45.486;9.190;2023-03-14T01:13:36;10.90;;;9.80;;
21665;SDS011;10994;45.486;9.190;2023-03-14T01:16:06;14.00;;;9.70;;
21665;SDS011;10994;45.486;9.190;2023-03-14T01:18:35;11.27;;;9.80;;
21665;SDS011;10994;45.486;9.190;2023-03-14T01:21:02;13.80;;;9.57;;
21665;SDS011;10994;45.486;9.190;2023-03-14T01:23:29;13.13;;;10.10;;
21665;SDS011;10994;45.486;9.190;2023-03-14T01:25:55;10.97;;;9.40;;
21665;SDS011;10994;45.486;9.190;2023-03-14T01:28:21;13.10;;;9.80;;
21665;SDS011;10994;45.486;9.190;2023-03-14T01:30:46;13.77;;;9.90;;
21665;SDS011;10994;45.486;9.190;2023-03-14T01:33:12;14.40;;;10.00;;
21665;SDS011;10994;45.486;9.190;2023-03-14T01:35:41;13.93;;;10.27;;
21665;SDS011;10994;45.486;9.190;2023-03-14T01:38:07;15.33;;;9.80;;
21665;SDS011;10994;45.486;9.190;2023-03-14T01:40:33;10.70;;;9.50;;
21665;SDS011;10994;45.486;9.190;2023-03-14T01:43:05;12.07;;;10.50;;
21665;SDS011;10994;45.486;9.190;2023-03-14T01:48:39;15.37;;;10.07;;
21665;SDS011;10994;45.486;9.190;2023-03-14T01:51:12;14.43;;;10.77;;
21665;SDS011;10994;45.486;9.190;2023-03-14T01:53:42;14.77;;;10.93;;
21665;SDS011;10994;45.486;9.190;2023-03-14T01:56:10;11.97;;;10.17;;
21665;SDS011;10994;45.486;9.190;2023-03-14T01:58:38;12.37;;;10.17;;
21665;SDS011;10994;45.486;9.190;2023-03-14T02:01:07;12.33;;;10.70;;
21665;SDS011;10994;45.486;9.190;2023-03-14T02:03:36;12.93;;;11.10;;
21665;SDS011;10994;45.486;9.190;2023-03-14T02:06:11;12.83;;;10.30;;
21665;SDS011;10994;45.486;9.190;2023-03-14T02:08:40;13.10;;;10.93;;
21665;SDS011;10994;45.486;9.190;2023-03-14T02:11:14;15.83;;;11.70;;
21665;SDS011;10994;45.486;9.190;2023-03-14T02:14:01;14.13;;;10.57;;
21665;SDS011;10994;45.486;9.190;2023-03-14T02:16:55;14.00;;;11.03;;
21665;SDS011;10994;45.486;9.190;2023-03-14T02:19:53;13.70;;;11.10;;
21665;SDS011;10994;45.486;9.190;2023-03-14T02:22:37;13.57;;;10.57;;
21665;SDS011;10994;45.486;9.190;2023-03-14T02:27:50;14.00;;;10.20;;
21665;SDS011;10994;45.486;9.190;2023-03-14T02:30:18;14.13;;;10.53;;
21665;SDS011;10994;45.486;9.190;2023-03-14T02:32:52;14.23;;;10.50;;
21665;SDS011;10994;45.486;9.190;2023-03-14T02:35:21;12.87;;;11.47;;
21665;SDS011;10994;45.486;9.190;2023-03-14T02:37:52;13.47;;;10.97;;
21665;SDS011;10994;45.486;9.190;2023-03-14T02:40:32;15.83;;;10.87;;
21665;SDS011;10994;45.486;9.190;2023-03-14T02:42:57;15.60;;;10.90;;
21665;SDS011;10994;45.486;9.190;2023-03-14T02:47:54;15.17;;;9.57;;
21665;SDS011;10994;45.486;9.190;2023-03-14T02:50:26;14.70;;;10.57;;
21665;SDS011;10994;45.486;9.190;2023-03-14T02:52:55;14.60;;;11.07;;
21665;SDS011;10994;45.486;9.190;2023-03-14T02:55:22;14.50;;;10.37;;
21665;SDS011;10994;45.486;9.190;2023-03-14T02:57:51;13.43;;;10.63;;
21665;SDS011;10994;45.486;9.190;2023-03-14T03:00:17;14.60;;;10.60;;
21665;SDS011;10994;45.486;9.190;2023-03-14T03:02:44;13.60;;;10.60;;
21665;SDS011;10994;45.486;9.190;2023-03-14T03:05:09;15.43;;;10.60;;
21665;SDS011;10994;45.486;9.190;2023-03-14T03:07:35;13.50;;;10.23;;
21665;SDS011;10994;45.486;9.190;2023-03-14T03:10:01;17.63;;;11.87;;
21665;SDS011;10994;45.486;9.190;2023-03-14T03:12:28;14.47;;;10.77;;
21665;SDS011;10994;45.486;9.190;2023-03-14T03:14:54;14.47;;;10.63;;
21665;SDS011;10994;45.486;9.190;2023-03-14T03:17:19;13.90;;;11.07;;
21665;SDS011;10994;45.486;9.190;2023-03-14T03:19:45;15.37;;;10.50;;
21665;SDS011;10994;45.486;9.190;2023-03-14T03:22:11;14.63;;;11.50;;
21665;SDS011;10994;45.486;9.190;2023-03-14T03:24:39;14.77;;;10.33;;
21665;SDS011;10994;45.486;9.190;2023-03-14T03:27:05;16.07;;;11.93;;
21665;SDS011;10994;45.486;9.190;2023-03-14T03:29:30;12.40;;;10.33;;
21665;SDS011;10994;45.486;9.190;2023-03-14T03:31:56;13.77;;;10.20;;
21665;SDS011;10994;45.486;9.190;2023-03-14T03:34:22;13.47;;;10.60;;
21665;SDS011;10994;45.486;9.190;2023-03-14T03:36:51;11.97;;;10.37;;
21665;SDS011;10994;45.486;9.190;2023-03-14T03:39:17;14.47;;;10.87;;
21665;SDS011;10994;45.486;9.190;2023-03-14T03:41:45;12.47;;;10.27;;
21665;SDS011;10994;45.486;9.190;2023-03-14T03:44:11;15.93;;;11.20;;
21665;SDS011;10994;45.486;9.190;2023-03-14T03:46:38;13.43;;;10.43;;
21665;SDS011;10994;45.486;9.190;2023-03-14T03:49:04;12.23;;;10.23;;
21665;SDS011;10994;45.486;9.190;2023-03-14T03:51:30;14.80;;;10.90;;
21665;SDS011;10994;45.486;9.190;2023-03-14T03:53:56;12.73;;;10.23;;
21665;SDS011;10994;45.486;9.190;2023-03-14T03:56:29;11.57;;;10.03;;
21665;SDS011;10994;45.486;9.190;2023-03-14T03:58:56;16.60;;;10.60;;
21665;SDS011;10994;45.486;9.190;2023-03-14T04:01:23;12.77;;;10.13;;
21665;SDS011;10994;45.486;9.190;2023-03-14T04:03:51;16.80;;;11.17;;
21665;SDS011;10994;45.486;9.190;2023-03-14T04:06:17;12.20;;;10.03;;
21665;SDS011;10994;45.486;9.190;2023-03-14T04:08:46;14.33;;;10.17;;
21665;SDS011;10994;45.486;9.190;2023-03-14T04:11:25;14.33;;;11.43;;
21665;SDS011;10994;45.486;9.190;2023-03-14T04:13:55;16.47;;;11.53;;
21665;SDS011;10994;45.486;9.190;2023-03-14T04:16:22;14.90;;;11.10;;
21665;SDS011;10994;45.486;9.190;2023-03-14T04:18:51;13.50;;;10.50;;
21665;SDS011;10994;45.486;9.190;2023-03-14T04:21:20;13.80;;;10.80;;
21665;SDS011;10994;45.486;9.190;2023-03-14T04:23:50;15.23;;;11.27;;
21665;SDS011;10994;45.486;9.190;2023-03-14T04:26:16;13.23;;;11.00;;
21665;SDS011;10994;45.486;9.190;2023-03-14T04:28:43;12.67;;;10.47;;
21665;SDS011;10994;45.486;9.190;2023-03-14T04:31:10;15.77;;;10.70;;
21665;SDS011;10994;45.486;9.190;2023-03-14T04:33:37;13.80;;;10.67;;
21665;SDS011;10994;45.486;9.190;2023-03-14T04:36:03;12.90;;;10.03;;
21665;SDS011;10994;45.486;9.190;2023-03-14T04:38:30;12.37;;;10.80;;
21665;SDS011;10994;45.486;9.190;2023-03-14T04:40:56;13.50;;;10.13;;
21665;SDS011;10994;45.486;9.190;2023-03-14T04:43:28;13.00;;;10.07;;
21665;SDS011;10994;45.486;9.190;2023-03-14T04:46:00;13.93;;;10.60;;
21665;SDS011;10994;45.486;9.190;2023-03-14T04:48:27;13.73;;;10.77;;
21665;SDS011;10994;45.486;9.190;2023-03-14T04:50:53;12.07;;;10.43;;
21665;SDS011;10994;45.486;9.190;2023-03-14T04:53:19;14.57;;;10.40;;
21665;SDS011;10994;45.486;9.190;2023-03-14T04:55:49;12.00;;;9.93;;
21665;SDS011;10994;45.486;9.190;2023-03-14T04:58:15;11.70;;;9.73;;
21665;SDS011;10994;45.486;9.190;2023-03-14T05:00:42;12.53;;;9.57;;
21665;SDS011;10994;45.486;9.190;2023-03-14T05:03:20;13.33;;;9.87;;
21665;SDS011;10994;45.486;9.190;2023-03-14T05:06:12;12.37;;;10.10;;
21665;SDS011;10994;45.486;9.190;2023-03-14T05:09:00;13.30;;;9.70;;
21665;SDS011;10994;45.486;9.190;2023-03-14T05:11:35;12.57;;;9.40;;
21665;SDS011;10994;45.486;9.190;2023-03-14T05:14:28;12.63;;;10.20;;
21665;SDS011;10994;45.486;9.190;2023-03-14T05:16:57;12.23;;;9.73;;
21665;SDS011;10994;45.486;9.190;2023-03-14T05:19:34;12.43;;;9.43;;
21665;SDS011;10994;45.486;9.190;2023-03-14T05:22:21;14.03;;;9.83;;
21665;SDS011;10994;45.486;9.190;2023-03-14T05:25:02;12.67;;;10.47;;
21665;SDS011;10994;45.486;9.190;2023-03-14T05:27:28;11.70;;;9.60;;
21665;SDS011;10994;45.486;9.190;2023-03-14T05:30:03;16.00;;;10.63;;
21665;SDS011;10994;45.486;9.190;2023-03-14T05:32:35;14.53;;;10.20;;
21665;SDS011;10994;45.486;9.190;2023-03-14T05:35:20;11.87;;;9.50;;
21665;SDS011;10994;45.486;9.190;2023-03-14T05:37:55;16.63;;;10.43;;
21665;SDS011;10994;45.486;9.190;2023-03-14T05:40:23;14.40;;;9.70;;
21665;SDS011;10994;45.486;9.190;2023-03-14T05:43:15;13.40;;;10.73;;
21665;SDS011;10994;45.486;9.190;2023-03-14T05:45:51;13.00;;;10.00;;
21665;SDS011;10994;45.486;9.190;2023-03-14T05:48:40;17.17;;;11.30;;
21665;SDS011;10994;45.486;9.190;2023-03-14T05:51:12;12.17;;;9.50;;
21665;SDS011;10994;45.486;9.190;2023-03-14T05:53:48;12.83;;;9.97;;
21665;SDS011;10994;45.486;9.190;2023-03-14T05:56:41;14.03;;;10.90;;
21665;SDS011;10994;45.486;9.190;2023-03-14T05:59:15;13.70;;;10.37;;
21665;SDS011;10994;45.486;9.190;2023-03-14T06:01:55;15.73;;;10.40;;
21665;SDS011;10994;45.486;9.190;2023-03-14T06:04:24;15.40;;;11.10;;
21665;SDS011;10994;45.486;9.190;2023-03-14T06:06:54;13.33;;;10.40;;
21665;SDS011;10994;45.486;9.190;2023-03-14T06:09:20;15.73;;;12.10;;
21665;SDS011;10994;45.486;9.190;2023-03-14T06:11:48;15.90;;;12.07;;
21665;SDS011;10994;45.486;9.190;2023-03-14T06:14:15;13.27;;;11.23;;
21665;SDS011;10994;45.486;9.190;2023-03-14T06:16:45;14.33;;;10.93;;
21665;SDS011;10994;45.486;9.190;2023-03-14T06:19:13;17.73;;;12.00;;
21665;SDS011;10994;45.486;9.190;2023-03-14T06:21:39;13.17;;;10.60;;
21665;SDS011;10994;45.486;9.190;2023-03-14T06:24:05;13.73;;;10.83;;
21665;SDS011;10994;45.486;9.190;2023-03-14T06:26:39;16.03;;;10.80;;
21665;SDS011;10994;45.486;9.190;2023-03-14T06:29:05;13.77;;;10.60;;
21665;SDS011;10994;45.486;9.190;2023-03-14T06:31:32;13.67;;;10.20;;
21665;SDS011;10994;45.486;9.190;2023-03-14T06:34:02;15.30;;;10.53;;
21665;SDS011;10994;45.486;9.190;2023-03-14T06:36:30;14.20;;;10.63;;
21665;SDS011;10994;45.486;9.190;2023-03-14T06:38:57;15.67;;;11.00;;
21665;SDS011;10994;45.486;9.190;2023-03-14T06:41:24;15.50;;;11.60;;
21665;SDS011;10994;45.486;9.190;2023-03-14T06:43:52;16.13;;;11.50;;
21665;SDS011;10994;45.486;9.190;2023-03-14T06:46:19;15.77;;;11.30;;
21665;SDS011;10994;45.486;9.190;2023-03-14T06:48:44;16.73;;;11.87;;
21665;SDS011;10994;45.486;9.190;2023-03-14T06:51:11;16.67;;;12.13;;
21665;SDS011;10994;45.486;9.190;2023-03-14T06:53:37;13.77;;;10.80;;
21665;SDS011;10994;45.486;9.190;2023-03-14T06:56:04;14.13;;;11.20;;
21665;SDS011;10994;45.486;9.190;2023-03-14T06:58:32;14.17;;;12.03;;
21665;SDS011;10994;45.486;9.190;2023-03-14T07:00:58;16.53;;;12.90;;
21665;SDS011;10994;45.486;9.190;2023-03-14T07:03:29;21.13;;;12.53;;
21665;SDS011;10994;45.486;9.190;2023-03-14T07:05:55;16.07;;;13.17;;
21665;SDS011;10994;45.486;9.190;2023-03-14T07:08:21;15.40;;;12.43;;
21665;SDS011;10994;45.486;9.190;2023-03-14T07:10:46;20.17;;;13.40;;
21665;SDS011;10994;45.486;9.190;2023-03-14T07:13:12;17.93;;;13.60;;
21665;SDS011;10994;45.486;9.190;2023-03-14T07:15:49;15.63;;;13.00;;
21665;SDS011;10994;45.486;9.190;2023-03-14T07:18:15;18.30;;;13.97;;
21665;SDS011;10994;45.486;9.190;2023-03-14T07:20:40;18.63;;;13.27;;
21665;SDS011;10994;45.486;9.190;2023-03-14T07:23:07;19.00;;;13.57;;
21665;SDS011;10994;45.486;9.190;2023-03-14T07:25:37;16.93;;;12.80;;
21665;SDS011;10994;45.486;9.190;2023-03-14T07:28:03;17.40;;;13.17;;
21665;SDS011;10994;45.486;9.190;2023-03-14T07:30:29;20.77;;;14.30;;
21665;SDS011;10994;45.486;9.190;2023-03-14T07:32:57;20.90;;;13.77;;
21665;SDS011;10994;45.486;9.190;2023-03-14T07:35:23;17.97;;;13.93;;
21665;SDS011;10994;45.486;9.190;2023-03-14T07:37:52;19.10;;;13.97;;
21665;SDS011;10994;45.486;9.190;2023-03-14T07:40:25;19.27;;;14.43;;
21665;SDS011;10994;45.486;9.190;2023-03-14T07:42:51;20.03;;;14.77;;
21665;SDS011;10994;45.486;9.190;2023-03-14T07:45:26;20.37;;;15.33;;
21665;SDS011;10994;45.486;9.190;2023-03-14T07:47:52;21.03;;;14.93;;
21665;SDS011;10994;45.486;9.190;2023-03-14T07:50:19;17.20;;;13.97;;
21665;SDS011;10994;45.486;9.190;2023-03-14T07:52:44;18.33;;;14.43;;
21665;SDS011;10994;45.486;9.190;2023-03-14T07:55:10;16.90;;;13.90;;
21665;SDS011;10994;45.486;9.190;2023-03-14T07:57:38;17.37;;;14.60;;
21665;SDS011;10994;45.486;9.190;2023-03-14T08:00:04;19.50;;;14.77;;
21665;SDS011;10994;45.486;9.190;2023-03-14T08:02:38;17.40;;;14.20;;
21665;SDS011;10994;45.486;9.190;2023-03-14T08:05:04;18.20;;;13.93;;
21665;SDS011;10994;45.486;9.190;2023-03-14T08:07:29;17.83;;;14.00;;
21665;SDS011;10994;45.486;9.190;2023-03-14T08:09:55;17.57;;;14.23;;
21665;SDS011;10994;45.486;9.190;2023-03-14T08:12:21;20.53;;;15.27;;
21665;SDS011;10994;45.486;9.190;2023-03-14T08:14:46;21.77;;;15.03;;
21665;SDS011;10994;45.486;9.190;2023-03-14T08:17:12;23.43;;;15.33;;
21665;SDS011;10994;45.486;9.190;2023-03-14T08:19:38;19.87;;;15.53;;
21665;SDS011;10994;45.486;9.190;2023-03-14T08:22:04;20.47;;;16.43;;
21665;SDS011;10994;45.486;9.190;2023-03-14T08:24:29;20.60;;;15.93;;
21665;SDS011;10994;45.486;9.190;2023-03-14T08:26:56;23.80;;;17.63;;
21665;SDS011;10994;45.486;9.190;2023-03-14T08:29:21;24.87;;;18.83;;
21665;SDS011;10994;45.486;9.190;2023-03-14T08:31:47;23.20;;;18.03;;
21665;SDS011;10994;45.486;9.190;2023-03-14T08:34:14;21.33;;;17.10;;
21665;SDS011;10994;45.486;9.190;2023-03-14T08:36:40;20.73;;;16.50;;
21665;SDS011;10994;45.486;9.190;2023-03-14T08:39:06;23.30;;;17.07;;
21665;SDS011;10994;45.486;9.190;2023-03-14T08:41:32;22.67;;;16.63;;
21665;SDS011;10994;45.486;9.190;2023-03-14T08:44:05;20.13;;;16.10;;
21665;SDS011;10994;45.486;9.190;2023-03-14T08:46:34;18.70;;;15.37;;
21665;SDS011;10994;45.486;9.190;2023-03-14T08:49:00;22.10;;;16.10;;
21665;SDS011;10994;45.486;9.190;2023-03-14T08:51:26;20.87;;;15.23;;
21665;SDS011;10994;45.486;9.190;2023-03-14T08:53:52;20.50;;;16.30;;
21665;SDS011;10994;45.486;9.190;2023-03-14T08:56:17;17.27;;;14.53;;
21665;SDS011;10994;45.486;9.190;2023-03-14T08:58:43;21.80;;;15.60;;
21665;SDS011;10994;45.486;9.190;2023-03-14T09:01:09;19.37;;;14.90;;
21665;SDS011;10994;45.486;9.190;2023-03-14T09:03:36;18.13;;;13.30;;
21665;SDS011;10994;45.486;9.190;2023-03-14T09:06:06;15.43;;;12.67;;
21665;SDS011;10994;45.486;9.190;2023-03-14T09:08:34;15.57;;;12.57;;
21665;SDS011;10994;45.486;9.190;2023-03-14T09:11:00;16.93;;;12.27;;
21665;SDS011;10994;45.486;9.190;2023-03-14T09:13:26;16.87;;;13.73;;
21665;SDS011;10994;45.486;9.190;2023-03-14T09:15:52;14.90;;;12.03;;
21665;SDS011;10994;45.486;9.190;2023-03-14T09:18:24;14.73;;;12.40;;
21665;SDS011;10994;45.486;9.190;2023-03-14T09:20:49;14.03;;;11.93;;
21665;SDS011;10994;45.486;9.190;2023-03-14T09:23:15;16.47;;;13.67;;
21665;SDS011;10994;45.486;9.190;2023-03-14T09:25:41;14.53;;;12.73;;
21665;SDS011;10994;45.486;9.190;2023-03-14T09:28:07;20.37;;;14.63;;
21665;SDS011;10994;45.486;9.190;2023-03-14T09:30:33;21.30;;;14.60;;
21665;SDS011;10994;45.486;9.190;2023-03-14T09:32:58;20.83;;;16.17;;
21665;SDS011;10994;45.486;9.190;2023-03-14T09:35:24;20.67;;;16.17;;
21665;SDS011;10994;45.486;9.190;2023-03-14T09:37:50;22.83;;;16.87;;
21665;SDS011;10994;45.486;9.190;2023-03-14T09:40:16;17.83;;;14.80;;
21665;SDS011;10994;45.486;9.190;2023-03-14T09:42:45;19.37;;;14.53;;
21665;SDS011;10994;45.486;9.190;2023-03-14T09:45:18;17.17;;;13.97;;
21665;SDS011;10994;45.486;9.190;2023-03-14T09:47:50;21.03;;;15.10;;
21665;SDS011;10994;45.486;9.190;2023-03-14T09:50:16;18.47;;;14.73;;
21665;SDS011;10994;45.486;9.190;2023-03-14T09:52:43;21.57;;;15.20;;
21665;SDS011;10994;45.486;9.190;2023-03-14T09:55:20;20.67;;;15.93;;
21665;SDS011;10994;45.486;9.190;2023-03-14T09:57:47;19.17;;;14.67;;
21665;SDS011;10994;45.486;9.190;2023-03-14T10:00:17;19.33;;;14.43;;
21665;SDS011;10994;45.486;9.190;2023-03-14T10:05:45;20.20;;;15.33;;
21665;SDS011;10994;45.486;9.190;2023-03-14T10:08:11;19.27;;;14.90;;
21665;SDS011;10994;45.486;9.190;2023-03-14T10:10:39;20.90;;;14.87;;
21665;SDS011;10994;45.486;9.190;2023-03-14T10:15:46;20.63;;;14.67;;
21665;SDS011;10994;45.486;9.190;2023-03-14T10:18:16;20.03;;;14.50;;
21665;SDS011;10994;45.486;9.190;2023-03-14T10:20:43;19.17;;;13.80;;
21665;SDS011;10994;45.486;9.190;2023-03-14T10:25:46;22.10;;;13.97;;
21665;SDS011;10994;45.486;9.190;2023-03-14T10:28:29;20.03;;;14.57;;
21665;SDS011;10994;45.486;9.190;2023-03-14T10:30:57;16.70;;;13.27;;
21665;SDS011;10994;45.486;9.190;2023-03-14T10:35:54;16.90;;;12.10;;
21665;SDS011;10994;45.486;9.190;2023-03-14T10:38:23;15.60;;;12.90;;
21665;SDS011;10994;45.486;9.190;2023-03-14T10:40:51;16.93;;;13.00;;
21665;SDS011;10994;45.486;9.190;2023-03-14T10:43:19;16.47;;;12.10;;
21665;SDS011;10994;45.486;9.190;2023-03-14T10:45:56;15.40;;;12.07;;
21665;SDS011;10994;45.486;9.190;2023-03-14T10:48:32;17.30;;;11.60;;
21665;SDS011;10994;45.486;9.190;2023-03-14T10:51:06;14.23;;;11.60;;
21665;SDS011;10994;45.486;9.190;2023-03-14T10:53:33;14.07;;;11.40;;
21665;SDS011;10994;45.486;9.190;2023-03-14T10:56:01;13.87;;;11.27;;
21665;SDS011;10994;45.486;9.190;2023-03-14T10:58:29;13.17;;;10.73;;
21665;SDS011;10994;45.486;9.190;2023-03-14T11:01:06;13.43;;;10.23;;
21665;SDS011;10994;45.486;9.190;2023-03-14T11:03:35;12.93;;;10.07;;
21665;SDS011;10994;45.486;9.190;2023-03-14T11:06:18;14.47;;;10.57;;
21665;SDS011;10994;45.486;9.190;2023-03-14T11:08:55;13.77;;;10.57;;
21665;SDS011;10994;45.486;9.190;2023-03-14T11:11:23;12.90;;;10.50;;
21665;SDS011;10994;45.486;9.190;2023-03-14T11:17:19;14.70;;;11.07;;
21665;SDS011;10994;45.486;9.190;2023-03-14T11:22:37;13.80;;;10.90;;
21665;SDS011;10994;45.486;9.190;2023-03-14T11:27:41;13.37;;;10.03;;
21665;SDS011;10994;45.486;9.190;2023-03-14T11:30:18;14.53;;;10.63;;
21665;SDS011;10994;45.486;9.190;2023-03-14T11:35:22;11.33;;;9.87;;
21665;SDS011;10994;45.486;9.190;2023-03-14T11:40:34;13.83;;;10.57;;
21665;SDS011;10994;45.486;9.190;2023-03-14T11:45:37;14.57;;;11.00;;
21665;SDS011;10994;45.486;9.190;2023-03-14T11:48:21;105.00;;;29.00;;
21665;SDS011;10994;45.486;9.190;2023-03-14T11:50:49;18.90;;;11.20;;
21665;SDS011;10994;45.486;9.190;2023-03-14T11:53:34;15.47;;;12.30;;
21665;SDS011;10994;45.486;9.190;2023-03-14T11:56:01;18.37;;;13.17;;
21665;SDS011;10994;45.486;9.190;2023-03-14T11:58:31;20.07;;;12.67;;
21665;SDS011;10994;45.486;9.190;2023-03-14T12:01:02;15.30;;;12.70;;
21665;SDS011;10994;45.486;9.190;2023-03-14T12:03:34;16.83;;;12.27;;
21665;SDS011;10994;45.486;9.190;2023-03-14T12:06:35;18.97;;;14.53;;
21665;SDS011;10994;45.486;9.190;2023-03-14T12:08:54;14.50;;;11.70;;
21665;SDS011;10994;45.486;9.190;2023-03-14T12:11:31;16.03;;;11.87;;
21665;SDS011;10994;45.486;9.190;2023-03-14T12:13:58;15.70;;;12.70;;
21665;SDS011;10994;45.486;9.190;2023-03-14T12:16:32;18.40;;;12.77;;
21665;SDS011;10994;45.486;9.190;2023-03-14T12:19:08;16.60;;;12.27;;
21665;SDS011;10994;45.486;9.190;2023-03-14T12:21:49;14.40;;;11.57;;
21665;SDS011;10994;45.486;9.190;2023-03-14T12:24:17;17.03;;;11.87;;
21665;SDS011;10994;45.486;9.190;2023-03-14T12:26:55;14.37;;;11.83;;
21665;SDS011;10994;45.486;9.190;2023-03-14T12:29:22;16.20;;;12.93;;
21665;SDS011;10994;45.486;9.190;2023-03-14T12:31:49;17.93;;;12.43;;
21665;SDS011;10994;45.486;9.190;2023-03-14T12:34:32;17.00;;;12.80;;
21665;SDS011;10994;45.486;9.190;2023-03-14T12:47:43;14.67;;;12.60;;
21665;SDS011;10994;45.486;9.190;2023-03-14T12:50:15;20.10;;;14.93;;
21665;SDS011;10994;45.486;9.190;2023-03-14T12:52:45;16.87;;;13.47;;
21665;SDS011;10994;45.486;9.190;2023-03-14T12:55:36;16.73;;;13.83;;
21665;SDS011;10994;45.486;9.190;2023-03-14T12:58:23;15.00;;;12.77;;
21665;SDS011;10994;45.486;9.190;2023-03-14T13:01:04;18.47;;;13.03;;
21665;SDS011;10994;45.486;9.190;2023-03-14T13:03:51;17.37;;;14.30;;
21665;SDS011;10994;45.486;9.190;2023-03-14T13:12:13;15.23;;;11.87;;
21665;SDS011;10994;45.486;9.190;2023-03-14T13:14:41;15.03;;;13.07;;
21665;SDS011;10994;45.486;9.190;2023-03-14T13:17:10;16.40;;;13.60;;
21665;SDS011;10994;45.486;9.190;2023-03-14T13:19:40;16.50;;;13.73;;
21665;SDS011;10994;45.486;9.190;2023-03-14T13:22:19;16.53;;;12.53;;
21665;SDS011;10994;45.486;9.190;2023-03-14T13:24:49;14.43;;;12.37;;
21665;SDS011;10994;45.486;9.190;2023-03-14T13:27:16;15.60;;;12.73;;
21665;SDS011;10994;45.486;9.190;2023-03-14T13:29:45;13.53;;;12.13;;
21665;SDS011;10994;45.486;9.190;2023-03-14T13:32:21;14.00;;;12.40;;
21665;SDS011;10994;45.486;9.190;2023-03-14T13:34:51;16.43;;;12.73;;
21665;SDS011;10994;45.486;9.190;2023-03-14T13:37:20;14.90;;;11.03;;
21665;SDS011;10994;45.486;9.190;2023-03-14T13:39:48;13.90;;;10.37;;
21665;SDS011;10994;45.486;9.190;2023-03-14T13:42:20;13.70;;;11.53;;
21665;SDS011;10994;45.486;9.190;2023-03-14T13:44:50;14.53;;;12.97;;
21665;SDS011;10994;45.486;9.190;2023-03-14T13:47:18;16.67;;;14.87;;
21665;SDS011;10994;45.486;9.190;2023-03-14T13:49:46;16.50;;;14.63;;
21665;SDS011;10994;45.486;9.190;2023-03-14T13:54:56;16.40;;;13.73;;
21665;SDS011;10994;45.486;9.190;2023-03-14T13:57:22;16.67;;;14.07;;
21665;SDS011;10994;45.486;9.190;2023-03-14T14:00:02;16.30;;;14.07;;
21665;SDS011;10994;45.486;9.190;2023-03-14T14:02:36;17.83;;;14.20;;
21665;SDS011;10994;45.486;9.190;2023-03-14T14:05:04;17.77;;;14.80;;
21665;SDS011;10994;45.486;9.190;2023-03-14T14:07:30;17.63;;;13.90;;
21665;SDS011;10994;45.486;9.190;2023-03-14T14:09:56;16.23;;;13.53;;
21665;SDS011;10994;45.486;9.190;2023-03-14T14:12:27;14.57;;;13.00;;
21665;SDS011;10994;45.486;9.190;2023-03-14T14:15:06;16.63;;;13.20;;
21665;SDS011;10994;45.486;9.190;2023-03-14T14:17:41;16.67;;;13.13;;
21665;SDS011;10994;45.486;9.190;2023-03-14T14:20:33;18.73;;;12.73;;
21665;SDS011;10994;45.486;9.190;2023-03-14T14:23:03;18.33;;;12.73;;
21665;SDS011;10994;45.486;9.190;2023-03-14T14:25:30;15.37;;;13.00;;
21665;SDS011;10994;45.486;9.190;2023-03-14T14:27:57;14.90;;;12.53;;
21665;SDS011;10994;45.486;9.190;2023-03-14T14:30:30;16.80;;;14.63;;
21665;SDS011;10994;45.486;9.190;2023-03-14T14:33:17;16.83;;;13.10;;
21665;SDS011;10994;45.486;9.190;2023-03-14T14:35:48;14.97;;;12.43;;
21665;SDS011;10994;45.486;9.190;2023-03-14T14:38:16;15.80;;;12.50;;
21665;SDS011;10994;45.486;9.190;2023-03-14T14:40:46;15.73;;;13.20;;
21665;SDS011;10994;45.486;9.190;2023-03-14T14:43:15;14.87;;;12.97;;
21665;SDS011;10994;45.486;9.190;2023-03-14T14:45:42;16.97;;;12.70;;
21665;SDS011;10994;45.486;9.190;2023-03-14T14:48:09;12.90;;;10.67;;
21665;SDS011;10994;45.486;9.190;2023-03-14T14:50:49;14.20;;;11.57;;
21665;SDS011;10994;45.486;9.190;2023-03-14T14:53:23;15.23;;;11.87;;
21665;SDS011;10994;45.486;9.190;2023-03-14T14:55:56;14.43;;;11.90;;
21665;SDS011;10994;45.486;9.190;2023-03-14T14:58:24;13.80;;;11.37;;
21665;SDS011;10994;45.486;9.190;2023-03-14T15:00:53;13.97;;;11.03;;
21665;SDS011;10994;45.486;9.190;2023-03-14T15:03:19;12.00;;;10.10;;
21665;SDS011;10994;45.486;9.190;2023-03-14T15:05:45;16.17;;;10.97;;
21665;SDS011;10994;45.486;9.190;2023-03-14T15:08:11;12.20;;;11.00;;
21665;SDS011;10994;45.486;9.190;2023-03-14T15:10:38;13.43;;;11.70;;
21665;SDS011;10994;45.486;9.190;2023-03-14T15:13:04;14.90;;;11.63;;
21665;SDS011;10994;45.486;9.190;2023-03-14T15:15:30;14.13;;;12.17;;
21665;SDS011;10994;45.486;9.190;2023-03-14T15:17:57;14.53;;;11.27;;
21665;SDS011;10994;45.486;9.190;2023-03-14T15:20:23;13.50;;;12.07;;
21665;SDS011;10994;45.486;9.190;2023-03-14T15:22:49;12.97;;;11.13;;
21665;SDS011;10994;45.486;9.190;2023-03-14T15:25:16;13.70;;;11.90;;
21665;SDS011;10994;45.486;9.190;2023-03-14T15:27:42;14.43;;;12.20;;
21665;SDS011;10994;45.486;9.190;2023-03-14T15:30:12;15.43;;;12.03;;
21665;SDS011;10994;45.486;9.190;2023-03-14T15:32:38;13.70;;;12.30;;
21665;SDS011;10994;45.486;9.190;2023-03-14T15:35:04;15.13;;;13.10;;